Time;durP1;ratioP1;P1;durP2;ratioP2;P2;SDS_P1;SDS_P2;PMS_P1;PMS_P2;Temp;Humidity;BMP_temperature;BMP_pressure;BME280_temperature;BME280_humidity;BME280_pressure;Samples;Min_cycle;Max_cycle;Signal;HPM_P1;HPM_P2
2023/04/19 00:02:08;;;;;;;22.23;14.18;;;10.80;99.90;;;;;;6277167;22;19999;-86
2023/04/19 00:04:40;;;;;;;22.05;14.60;;;10.80;99.90;;;;;;6277555;22;20000;-87
2023/04/19 00:07:06;;;;;;;18.17;12.82;;;10.70;99.90;;;;;;6277489;22;20007;-86
2023/04/19 00:09:32;;;;;;;21.85;14.07;;;10.70;99.90;;;;;;6276932;22;19996;-86
2023/04/19 00:11:58;;;;;;;23.17;15.40;;;10.70;99.90;;;;;;6276877;22;20000;-87
2023/04/19 00:14:23;;;;;;;27.95;14.93;;;10.60;99.90;;;;;;6276999;22;20002;-87
2023/04/19 00:16:49;;;;;;;34.60;18.42;;;10.60;99.90;;;;;;6276970;22;19992;-87
2023/04/19 00:19:17;;;;;;;30.17;16.42;;;10.70;99.90;;;;;;6277126;22;19995;-86
2023/04/19 00:21:43;;;;;;;23.05;14.52;;;10.70;99.90;;;;;;6278483;22;20011;-85
2023/04/19 00:24:09;;;;;;;23.02;13.73;;;10.70;99.90;;;;;;6276595;22;19999;-86
2023/04/19 00:26:35;;;;;;;21.92;14.55;;;10.70;99.90;;;;;;6276823;22;20408;-86
2023/04/19 00:29:01;;;;;;;18.88;13.13;;;10.70;99.90;;;;;;6276451;22;20408;-86
2023/04/19 00:31:26;;;;;;;20.85;13.77;;;10.70;99.90;;;;;;6277894;22;20037;-86
2023/04/19 00:33:52;;;;;;;18.48;12.52;;;10.70;99.90;;;;;;6276627;22;20000;-86
2023/04/19 00:36:18;;;;;;;16.73;12.00;;;10.70;99.90;;;;;;6276585;22;20026;-86
2023/04/19 00:38:44;;;;;;;16.88;11.63;;;10.70;99.90;;;;;;6276990;22;20091;-87
2023/04/19 00:41:10;;;;;;;21.88;12.75;;;10.70;99.90;;;;;;6276652;22;19996;-86
2023/04/19 00:43:35;;;;;;;19.52;13.23;;;10.70;99.90;;;;;;6276770;22;20045;-86
2023/04/19 00:46:01;;;;;;;19.65;13.07;;;10.70;99.90;;;;;;6276879;22;20367;-87
2023/04/19 00:48:28;;;;;;;20.90;12.80;;;10.70;99.90;;;;;;6276807;22;19991;-86
2023/04/19 00:50:54;;;;;;;21.17;13.63;;;10.70;99.90;;;;;;6276576;22;19995;-87
2023/04/19 00:53:22;;;;;;;25.45;14.00;;;10.70;99.90;;;;;;6278366;22;20409;-86
2023/04/19 00:55:50;;;;;;;24.83;14.50;;;10.80;99.90;;;;;;6276980;22;20027;-86
2023/04/19 00:58:18;;;;;;;23.58;14.35;;;10.80;99.90;;;;;;6276650;22;20000;-88
2023/04/19 01:00:44;;;;;;;19.13;13.38;;;10.80;99.90;;;;;;6277027;22;20078;-88
2023/04/19 01:03:13;;;;;;;23.60;14.13;;;10.80;99.90;;;;;;6276923;22;20022;-87
2023/04/19 01:05:39;;;;;;;19.17;13.63;;;10.80;99.90;;;;;;6276404;22;20003;-88
2023/04/19 01:08:05;;;;;;;23.23;13.38;;;10.80;99.90;;;;;;6278553;22;19996;-88
2023/04/19 01:10:31;;;;;;;18.92;13.05;;;10.80;99.90;;;;;;6278280;22;19987;-88
2023/04/19 01:12:56;;;;;;;21.77;14.10;;;10.80;99.90;;;;;;6276499;22;19995;-87
2023/04/19 01:15:25;;;;;;;21.38;13.90;;;10.80;99.90;;;;;;6276762;22;19995;-88
2023/04/19 01:17:51;;;;;;;19.45;12.77;;;10.80;99.90;;;;;;6276801;22;19992;-88
2023/04/19 01:20:17;;;;;;;24.38;14.82;;;10.80;99.90;;;;;;6277878;22;19992;-88
2023/04/19 01:22:43;;;;;;;23.80;13.52;;;10.80;99.90;;;;;;6276476;22;20020;-88
2023/04/19 01:25:09;;;;;;;25.77;15.15;;;10.80;99.90;;;;;;6276298;22;20007;-87
2023/04/19 01:27:35;;;;;;;30.00;17.10;;;10.80;99.90;;;;;;6276569;22;20007;-88
2023/04/19 01:30:03;;;;;;;26.35;15.82;;;10.90;99.90;;;;;;6276638;22;20000;-88
2023/04/19 01:32:29;;;;;;;23.30;14.05;;;10.90;99.90;;;;;;6276274;22;19999;-88
2023/04/19 01:34:55;;;;;;;33.70;16.05;;;10.90;99.90;;;;;;6276715;22;20304;-88
2023/04/19 01:37:20;;;;;;;25.05;14.35;;;10.90;99.90;;;;;;6276112;22;20420;-87
2023/04/19 01:39:49;;;;;;;24.63;14.65;;;11.00;99.90;;;;;;6275545;22;20366;-87
2023/04/19 01:42:15;;;;;;;23.83;13.70;;;11.00;99.90;;;;;;6277630;22;19991;-88
2023/04/19 01:44:43;;;;;;;21.20;13.35;;;11.10;99.90;;;;;;6275609;22;20006;-88
2023/04/19 01:47:09;;;;;;;18.67;12.90;;;11.10;99.90;;;;;;6275611;22;19999;-88
2023/04/19 01:49:35;;;;;;;20.83;13.52;;;11.10;99.90;;;;;;6276016;22;20079;-87
2023/04/19 01:52:01;;;;;;;17.17;12.25;;;11.10;99.90;;;;;;6275535;22;20031;-87
2023/04/19 01:54:30;;;;;;;18.67;12.10;;;11.10;99.90;;;;;;6275287;22;20082;-87
2023/04/19 01:56:56;;;;;;;17.60;11.57;;;11.20;99.90;;;;;;6276133;22;20003;-86
2023/04/19 01:59:22;;;;;;;16.50;11.68;;;11.20;99.90;;;;;;6275505;22;20353;-87
2023/04/19 02:01:47;;;;;;;16.85;11.50;;;11.20;99.90;;;;;;6275821;22;19996;-88
2023/04/19 02:04:13;;;;;;;17.15;11.23;;;11.20;99.90;;;;;;6275642;22;20031;-88
2023/04/19 02:06:42;;;;;;;17.60;11.25;;;11.20;99.90;;;;;;6275323;22;20430;-87
2023/04/19 02:09:11;;;;;;;17.45;12.07;;;11.20;99.90;;;;;;6275215;22;20049;-88
2023/04/19 02:11:37;;;;;;;18.17;11.90;;;11.30;99.90;;;;;;6275438;22;20006;-88
2023/04/19 02:14:06;;;;;;;20.83;12.80;;;11.30;99.90;;;;;;6276189;22;20002;-88
2023/04/19 02:16:32;;;;;;;19.00;12.45;;;11.30;99.90;;;;;;6275253;22;19995;-87
2023/04/19 02:18:57;;;;;;;24.05;12.88;;;11.30;99.90;;;;;;6275552;22;20038;-88
2023/04/19 02:21:23;;;;;;;18.25;11.73;;;11.20;99.90;;;;;;6274829;22;20012;-88
2023/04/19 02:23:49;;;;;;;24.80;13.57;;;11.20;99.90;;;;;;6275566;22;20018;-87
2023/04/19 02:26:15;;;;;;;17.27;12.13;;;11.20;99.90;;;;;;6275206;22;20003;-88
2023/04/19 02:28:40;;;;;;;17.52;11.88;;;11.20;99.90;;;;;;6275251;22;20029;-88
2023/04/19 02:31:07;;;;;;;15.95;11.75;;;11.20;99.90;;;;;;6275105;22;20420;-86
2023/04/19 02:33:33;;;;;;;16.95;12.98;;;11.20;99.90;;;;;;6275733;22;19995;-88
2023/04/19 02:35:59;;;;;;;14.73;10.93;;;11.20;99.90;;;;;;6274871;22;20011;-88
2023/04/19 02:38:25;;;;;;;15.52;10.30;;;11.20;99.90;;;;;;6277329;22;20313;-88
2023/04/19 02:40:50;;;;;;;19.05;12.25;;;11.20;99.90;;;;;;6275562;22;19991;-86
2023/04/19 02:43:16;;;;;;;18.27;11.38;;;11.20;99.90;;;;;;6274967;22;20304;-87
2023/04/19 02:45:42;;;;;;;18.50;12.02;;;11.20;99.90;;;;;;6275367;22;20006;-87
2023/04/19 02:48:08;;;;;;;19.90;12.00;;;11.30;99.90;;;;;;6275479;22;20022;-88
2023/04/19 02:50:37;;;;;;;17.48;11.30;;;11.20;99.90;;;;;;6276447;22;20077;-87
2023/04/19 02:53:03;;;;;;;20.55;11.15;;;11.30;99.90;;;;;;6275686;22;20263;-87
2023/04/19 02:55:28;;;;;;;19.20;11.20;;;11.30;99.90;;;;;;6275229;22;20011;-87
2023/04/19 02:57:54;;;;;;;16.13;11.15;;;11.30;99.90;;;;;;6276675;22;20404;-87
2023/04/19 03:00:20;;;;;;;17.75;11.75;;;11.30;99.90;;;;;;6275342;22;20034;-87
2023/04/19 03:02:46;;;;;;;20.20;13.05;;;11.30;99.90;;;;;;6275141;22;19992;-87
2023/04/19 03:05:14;;;;;;;20.65;12.32;;;11.30;99.90;;;;;;6276728;22;20026;-88
2023/04/19 03:07:40;;;;;;;16.73;11.07;;;11.30;99.90;;;;;;6275683;22;20312;-87
2023/04/19 03:10:06;;;;;;;20.65;11.90;;;11.30;99.90;;;;;;6275656;22;20016;-88
2023/04/19 03:12:32;;;;;;;20.15;12.77;;;11.40;99.90;;;;;;6276688;22;20071;-87
2023/04/19 03:14:58;;;;;;;19.33;11.82;;;11.30;99.90;;;;;;6276987;22;19996;-87
2023/04/19 03:17:23;;;;;;;27.80;14.68;;;11.30;99.90;;;;;;6276282;22;20036;-88
2023/04/19 03:19:49;;;;;;;26.27;14.68;;;11.40;99.90;;;;;;6277520;22;20078;-87
2023/04/19 03:22:15;;;;;;;19.45;13.05;;;11.40;99.90;;;;;;6277382;22;20094;-88
2023/04/19 03:24:41;;;;;;;25.02;13.93;;;11.40;99.90;;;;;;6277197;22;20066;-88
2023/04/19 03:27:07;;;;;;;19.75;13.13;;;11.40;99.90;;;;;;6277835;22;20053;-89
2023/04/19 03:29:32;;;;;;;21.42;12.25;;;11.30;99.90;;;;;;6277656;22;20031;-88
2023/04/19 03:31:58;;;;;;;20.45;12.45;;;11.30;99.90;;;;;;6277010;22;19996;-87
2023/04/19 03:34:24;;;;;;;21.00;13.32;;;11.30;99.90;;;;;;6277381;22;20006;-89
2023/04/19 03:36:50;;;;;;;23.65;13.05;;;11.30;99.90;;;;;;6277249;22;20473;-87
2023/04/19 03:39:16;;;;;;;19.85;12.40;;;11.30;99.90;;;;;;6278385;22;20017;-87
2023/04/19 03:41:41;;;;;;;22.45;12.15;;;11.30;99.90;;;;;;6277239;22;19992;-87
2023/04/19 03:44:07;;;;;;;23.63;12.77;;;11.20;99.90;;;;;;6277075;22;20007;-88
2023/04/19 03:46:33;;;;;;;20.35;12.40;;;11.30;99.90;;;;;;6276874;22;20479;-87
2023/04/19 03:48:59;;;;;;;22.15;12.65;;;11.20;99.90;;;;;;6277010;22;20023;-88
2023/04/19 03:51:26;;;;;;;22.33;12.45;;;11.30;99.90;;;;;;6276871;22;20397;-88
2023/04/19 03:53:51;;;;;;;32.63;15.45;;;11.30;99.90;;;;;;6276773;22;19992;-87
2023/04/19 03:56:17;;;;;;;25.80;14.40;;;11.30;99.90;;;;;;6277037;22;20078;-87
2023/04/19 03:58:43;;;;;;;25.30;15.50;;;11.30;99.90;;;;;;6277160;22;20329;-88
2023/04/19 04:01:20;;;;;;;23.75;14.75;;;11.30;99.90;;;;;;6276199;22;20065;-88
2023/04/19 04:03:46;;;;;;;24.15;14.70;;;11.30;99.90;;;;;;6276774;22;19995;-87
2023/04/19 04:06:12;;;;;;;21.75;13.80;;;11.30;99.90;;;;;;6276761;22;20050;-87
2023/04/19 04:08:38;;;;;;;22.70;13.60;;;11.30;99.90;;;;;;6277392;22;20000;-88
2023/04/19 04:11:03;;;;;;;25.95;14.60;;;11.40;99.90;;;;;;6276835;22;20431;-87
2023/04/19 04:13:29;;;;;;;23.80;14.10;;;11.40;99.90;;;;;;6276278;22;20004;-87
2023/04/19 04:15:55;;;;;;;21.17;13.70;;;11.40;99.90;;;;;;6277197;22;19995;-88
2023/04/19 04:18:22;;;;;;;19.50;12.82;;;11.40;99.90;;;;;;6278464;22;20347;-87
2023/04/19 04:20:48;;;;;;;23.42;13.80;;;11.30;99.90;;;;;;6277787;22;20042;-87
2023/04/19 04:23:13;;;;;;;23.98;14.25;;;11.40;99.90;;;;;;6278474;22;19994;-86
2023/04/19 04:25:41;;;;;;;22.17;13.63;;;11.40;99.90;;;;;;6276722;22;20003;-88
2023/04/19 04:28:07;;;;;;;25.08;15.00;;;11.40;99.90;;;;;;6277450;22;20025;-87
2023/04/19 04:30:33;;;;;;;26.63;14.27;;;11.40;99.90;;;;;;6276538;22;20334;-87
2023/04/19 04:32:59;;;;;;;28.05;14.02;;;11.40;99.90;;;;;;6278160;22;20121;-87
2023/04/19 04:35:26;;;;;;;21.98;13.13;;;11.40;99.90;;;;;;6275995;22;19996;-87
2023/04/19 04:37:52;;;;;;;22.80;14.02;;;11.40;99.90;;;;;;6276645;22;20033;-87
2023/04/19 04:40:19;;;;;;;22.33;13.20;;;11.50;99.90;;;;;;6276488;22;20023;-87
2023/04/19 04:42:44;;;;;;;25.15;14.70;;;11.50;99.90;;;;;;6276186;22;20078;-88
2023/04/19 04:45:10;;;;;;;27.98;14.75;;;11.50;99.90;;;;;;6276572;22;20020;-88
2023/04/19 04:47:36;;;;;;;31.35;15.18;;;11.50;99.90;;;;;;6276496;22;20004;-87
2023/04/19 04:50:03;;;;;;;23.38;14.18;;;11.40;99.90;;;;;;6276234;22;19996;-87
2023/04/19 04:52:29;;;;;;;22.80;13.38;;;11.50;99.90;;;;;;6276539;22;20019;-86
2023/04/19 04:54:55;;;;;;;23.65;13.07;;;11.50;99.90;;;;;;6278427;22;20448;-85
2023/04/19 04:57:21;;;;;;;25.88;13.07;;;11.50;99.90;;;;;;6278103;22;19991;-85
2023/04/19 04:59:47;;;;;;;24.23;14.30;;;11.50;99.90;;;;;;6276846;22;20003;-86
2023/04/19 05:02:25;;;;;;;23.15;14.32;;;11.60;99.90;;;;;;6278180;22;20274;-87
2023/04/19 05:04:54;;;;;;;26.10;14.65;;;11.60;99.90;;;;;;6276965;22;20462;-87
2023/04/19 05:07:20;;;;;;;23.45;13.90;;;11.50;99.90;;;;;;6276877;22;20043;-87
2023/04/19 05:09:51;;;;;;;25.10;14.25;;;11.50;99.90;;;;;;6278027;22;20067;-87
2023/04/19 05:12:20;;;;;;;23.90;13.02;;;11.50;99.90;;;;;;6277153;22;20083;-88
2023/04/19 05:14:46;;;;;;;23.45;12.63;;;11.50;99.90;;;;;;6276779;22;20413;-86
2023/04/19 05:17:12;;;;;;;22.02;13.82;;;11.50;99.90;;;;;;6276518;22;19999;-87
2023/04/19 05:19:40;;;;;;;23.65;13.30;;;11.50;99.90;;;;;;6244714;23;20000;-89
2023/04/19 05:22:06;;;;;;;25.88;14.80;;;11.60;99.90;;;;;;6244224;23;20087;-89
2023/04/19 05:24:35;;;;;;;24.17;13.35;;;11.70;99.90;;;;;;6244023;23;20413;-89
2023/04/19 05:27:12;;;;;;;21.40;13.00;;;11.70;99.90;;;;;;6244518;23;20000;-89
2023/04/19 05:29:40;;;;;;;22.88;12.00;;;11.70;99.90;;;;;;6244541;23;20012;-89
2023/04/19 05:32:32;;;;;;;22.00;12.70;;;11.70;99.90;;;;;;6243913;23;20355;-89
2023/04/19 05:34:58;;;;;;;;;;;11.80;99.90;;;;;;6244599;23;20498;-89
2023/04/19 05:37:24;;;;;;;26.27;12.73;;;11.80;99.90;;;;;;6243826;23;19899;-89
2023/04/19 05:40:32;;;;;;;;;;;;;;;;;;;;;
2023/04/19 05:42:58;;;;;;;16.95;11.43;;;10.90;99.90;;;;;;6244132;23;20072;-87
2023/04/19 05:45:29;;;;;;;18.77;12.40;;;12.00;99.90;;;;;;6243741;23;20031;-88
2023/04/19 05:47:55;;;;;;;18.65;11.30;;;12.10;99.90;;;;;;6244571;23;20027;-88
2023/04/19 05:51:17;;;;;;;;;;;;;;;;;;;;;
2023/04/19 05:57:46;;;;;;;19.38;10.90;;;12.20;99.90;;;;;;6260349;22;20021;-88
2023/04/19 06:07:00;;;;;;;22.60;11.27;;;12.80;99.90;;;;;;6062127;23;20054;-84
2023/04/19 06:09:25;;;;;;;26.90;12.35;;;13.00;99.90;;;;;;6070268;23;20002;-85
2023/04/19 06:11:53;;;;;;;15.32;8.27;;;13.10;99.90;;;;;;6070741;23;19994;-84
2023/04/19 06:14:19;;;;;;;11.95;8.10;;;13.00;99.90;;;;;;6070109;23;19998;-85
2023/04/19 06:16:45;;;;;;;14.40;8.38;;;12.90;99.90;;;;;;6070525;23;20050;-85
2023/04/19 06:19:11;;;;;;;12.40;8.40;;;13.00;99.90;;;;;;6070126;23;20431;-85
2023/04/19 06:21:37;;;;;;;15.23;7.72;;;13.00;99.90;;;;;;6094032;23;20013;-86
2023/04/19 06:24:04;;;;;;;10.38;7.55;;;13.00;99.90;;;;;;6094662;23;20001;-85
2023/04/19 06:26:30;;;;;;;10.05;8.00;;;13.10;99.90;;;;;;6070048;23;20002;-86
2023/04/19 06:28:56;;;;;;;10.82;8.07;;;13.10;99.90;;;;;;6070355;23;19998;-86
2023/04/19 06:31:22;;;;;;;12.88;8.52;;;13.10;99.90;;;;;;6093987;23;19999;-86
2023/04/19 06:33:48;;;;;;;9.68;7.13;;;13.20;99.90;;;;;;6070395;23;20097;-87
2023/04/19 06:36:14;;;;;;;14.52;6.90;;;13.20;99.90;;;;;;6094619;23;20032;-87
2023/04/19 06:38:46;;;;;;;11.63;7.30;;;13.10;99.90;;;;;;6187615;23;20000;-86
2023/04/19 06:41:12;;;;;;;9.15;7.65;;;13.00;99.90;;;;;;6274690;22;20011;-87
2023/04/19 06:43:41;;;;;;;12.77;7.05;;;13.10;99.90;;;;;;6275593;22;19992;-86
2023/04/19 06:46:08;;;;;;;9.35;8.05;;;13.20;99.90;;;;;;6275179;22;20007;-87
2023/04/19 06:48:40;;;;;;;10.32;7.95;;;13.20;99.90;;;;;;6275503;22;20423;-87
2023/04/19 06:51:08;;;;;;;;;;;13.20;99.90;;;;;;6275802;22;20078;-87
2023/04/19 06:53:35;;;;;;;13.00;8.25;;;13.20;99.90;;;;;;6276031;22;19899;-89
2023/04/19 06:56:05;;;;;;;11.95;7.65;;;13.20;99.90;;;;;;6276012;22;19996;-87
2023/04/19 06:58:31;;;;;;;10.50;7.55;;;13.20;99.90;;;;;;6276226;22;20349;-87
2023/04/19 07:01:06;;;;;;;15.82;8.48;;;13.40;99.90;;;;;;6276111;22;20412;-86
2023/04/19 07:03:32;;;;;;;8.70;7.80;;;13.50;99.90;;;;;;6276055;22;20022;-87
2023/04/19 07:05:58;;;;;;;7.60;6.10;;;13.60;99.90;;;;;;6275380;22;20004;-86
2023/04/19 07:08:24;;;;;;;12.23;6.60;;;13.70;99.90;;;;;;6275679;22;20018;-86
2023/04/19 07:10:50;;;;;;;7.15;5.93;;;13.90;99.90;;;;;;6275954;22;20006;-87
2023/04/19 07:13:16;;;;;;;7.97;6.72;;;13.80;99.90;;;;;;6275611;22;20021;-89
2023/04/19 07:16:02;;;;;;;9.98;6.68;;;13.70;99.90;;;;;;6275894;22;19999;-89
2023/04/19 07:18:46;;;;;;;;;;;;;;;;;;;;;
2023/04/19 07:21:32;;;;;;;8.77;6.50;;;14.10;99.90;;;;;;6276525;22;20079;-88
2023/04/19 07:24:02;;;;;;;12.13;7.70;;;14.20;99.90;;;;;;6250169;22;20015;-89
2023/04/19 07:26:30;;;;;;;8.73;6.40;;;14.40;99.90;;;;;;6249037;22;20087;-88
2023/04/19 07:28:59;;;;;;;6.68;5.90;;;14.40;99.90;;;;;;6249652;22;20086;-89
2023/04/19 07:32:12;;;;;;;10.82;6.80;;;14.20;99.90;;;;;;6249668;22;20023;-88
2023/04/19 07:34:59;;;;;;;7.97;6.25;;;14.20;99.90;;;;;;6249844;22;20023;-91
2023/04/19 07:45:02;;;;;;;8.38;6.18;;;15.10;99.90;;;;;;6095800;23;20001;-87
2023/04/19 07:51:44;;;;;;;9.23;7.07;;;14.60;99.90;;;;;;6152971;23;20005;-87
2023/04/19 07:54:26;;;;;;;14.02;7.53;;;14.60;99.90;;;;;;6126942;23;20434;-89
2023/04/19 08:00:28;;;;;;;7.40;6.57;;;15.30;99.90;;;;;;6065994;23;20082;-89
2023/04/19 08:03:17;;;;;;;8.25;7.43;;;15.50;99.90;;;;;;6037289;23;19999;-88
2023/04/19 08:16:13;;;;;;;11.13;6.72;;;15.50;99.90;;;;;;5898306;24;20121;-87
2023/04/19 08:18:43;;;;;;;8.20;6.88;;;15.30;99.90;;;;;;5899094;24;20006;-85
2023/04/19 08:30:55;;;;;;;;;;;15.80;99.90;;;;;;5872283;24;19930;-86
2023/04/19 08:34:14;;;;;;;7.68;6.28;;;16.10;99.90;;;;;;5872299;24;19907;-86
2023/04/19 08:46:49;;;;;;;11.27;8.25;;;17.30;98.50;;;;;;5845219;24;20016;-89
2023/04/19 08:49:56;;;;;;;9.73;7.55;;;16.90;96.30;;;;;;5845023;24;20003;-89
2023/04/19 08:53:13;;;;;;;8.27;7.40;;;16.60;96.30;;;;;;5785984;24;20342;-91
2023/04/19 08:55:44;;;;;;;7.72;7.03;;;16.30;99.10;;;;;;5765959;24;20044;-91
2023/04/19 08:58:17;;;;;;;9.07;8.10;;;16.10;97.90;;;;;;5766385;24;20079;-89
2023/04/19 09:00:48;;;;;;;7.32;6.60;;;16.10;95.70;;;;;;5798534;24;20283;-89
2023/04/19 09:03:47;;;;;;;8.05;7.32;;;16.10;96.00;;;;;;5872092;24;20013;-89
2023/04/19 09:06:37;;;;;;;8.70;7.90;;;16.10;96.70;;;;;;5871919;24;20426;-89
2023/04/19 09:09:23;;;;;;;8.60;7.72;;;16.20;95.30;;;;;;5872064;24;20035;-89
2023/04/19 09:15:07;;;;;;;7.65;6.93;;;16.20;92.90;;;;;;5871037;24;20001;-87
2023/04/19 09:18:09;;;;;;;;;;;;;;;;;;;;;
2023/04/19 09:23:54;;;;;;;10.60;9.20;;;16.60;93.40;;;;;;6089514;23;19996;-89
2023/04/19 09:26:37;;;;;;;16.98;9.75;;;16.80;94.40;;;;;;6071769;23;20014;-89
2023/04/19 09:35:50;;;;;;;8.02;7.22;;;17.20;95.90;;;;;;6102418;23;20033;-90
2023/04/19 09:41:19;;;;;;;9.35;8.10;;;18.20;94.10;;;;;;6125268;23;20028;-89
2023/04/19 09:43:48;;;;;;;8.02;7.22;;;18.70;94.00;;;;;;6124631;23;20002;-88
2023/04/19 09:46:35;;;;;;;10.60;7.97;;;18.40;90.20;;;;;;6123807;23;20010;-87
2023/04/19 09:49:18;;;;;;;8.68;7.88;;;18.80;89.90;;;;;;6124161;23;20427;-83
2023/04/19 09:51:48;;;;;;;9.13;8.23;;;19.20;85.50;;;;;;6124659;23;20451;-82
2023/04/19 09:54:16;;;;;;;8.50;7.60;;;19.40;81.60;;;;;;6124471;23;19998;-86
2023/04/19 09:57:00;;;;;;;8.07;7.30;;;19.50;81.50;;;;;;6124880;23;19997;-83
2023/04/19 09:59:25;;;;;;;8.15;7.35;;;19.60;80.60;;;;;;6124702;23;20005;-86
2023/04/19 10:01:54;;;;;;;8.68;7.75;;;18.80;80.80;;;;;;6124440;23;20084;-87
2023/04/19 10:04:27;;;;;;;8.00;7.20;;;18.30;82.50;;;;;;6124601;23;19998;-89
2023/04/19 10:10:07;;;;;;;6.60;6.07;;;18.30;86.60;;;;;;6112586;23;19994;-86
2023/04/19 10:13:22;;;;;;;7.15;6.53;;;18.50;70.90;;;;;;6124418;23;20029;-89
2023/04/19 10:16:19;;;;;;;6.63;6.03;;;18.10;77.20;;;;;;6124319;23;20002;-88
2023/04/19 10:18:49;;;;;;;7.22;6.53;;;18.30;80.10;;;;;;6124341;23;20001;-86
2023/04/19 10:21:21;;;;;;;6.20;5.60;;;18.40;82.10;;;;;;6123876;23;20009;-88
2023/04/19 10:23:47;;;;;;;8.90;6.00;;;18.50;77.90;;;;;;6099087;23;20009;-87
2023/04/19 10:26:13;;;;;;;8.45;6.53;;;18.60;75.80;;;;;;6099064;23;20029;-86
2023/04/19 10:28:45;;;;;;;10.95;6.60;;;18.40;79.50;;;;;;6099295;23;19994;-86
2023/04/19 10:31:22;;;;;;;8.43;6.20;;;18.10;79.70;;;;;;6124170;23;20085;-87
2023/04/19 10:33:50;;;;;;;7.45;6.15;;;17.80;77.00;;;;;;6123775;23;19994;-87
2023/04/19 10:36:17;;;;;;;6.80;5.60;;;17.50;81.90;;;;;;6122852;23;20081;-85
2023/04/19 10:38:48;;;;;;;7.63;6.13;;;17.90;83.60;;;;;;6099311;23;20084;-86
2023/04/19 10:41:22;;;;;;;7.78;6.03;;;18.10;80.50;;;;;;6099445;23;20072;-86
2023/04/19 10:43:54;;;;;;;7.07;6.38;;;17.40;82.10;;;;;;6146336;23;20005;-88
2023/04/19 10:46:20;;;;;;;;;;;17.40;84.70;;;;;;6219799;23;20085;-87
2023/04/19 10:48:52;;;;;;;8.07;6.72;;;17.60;83.40;;;;;;6245609;23;19899;-87
2023/04/19 10:51:21;;;;;;;9.13;5.75;;;17.60;81.30;;;;;;6219819;23;20003;-87
2023/04/19 10:53:52;;;;;;;7.50;6.72;;;17.80;82.30;;;;;;6219435;23;20051;-88
2023/04/19 10:56:21;;;;;;;6.30;5.70;;;18.00;84.00;;;;;;6219327;23;20454;-87
2023/04/19 10:59:10;;;;;;;9.55;6.05;;;18.00;79.10;;;;;;6219095;23;20047;-87
2023/04/19 11:01:53;;;;;;;6.30;5.70;;;18.00;77.40;;;;;;6220131;23;20003;-87
2023/04/19 11:04:35;;;;;;;7.25;6.45;;;18.00;78.90;;;;;;6218939;23;20018;-86
2023/04/19 11:07:06;;;;;;;7.75;6.53;;;18.10;77.60;;;;;;6219525;23;20000;-87
2023/04/19 11:09:41;;;;;;;6.63;6.03;;;18.10;79.10;;;;;;6219606;23;20419;-86
2023/04/19 11:12:12;;;;;;;9.10;7.07;;;17.90;75.00;;;;;;6219779;23;20009;-87
2023/04/19 11:14:43;;;;;;;17.95;7.57;;;17.80;76.00;;;;;;6219640;23;19996;-86
2023/04/19 11:17:31;;;;;;;8.00;7.20;;;17.70;77.80;;;;;;6219154;23;20090;-87
2023/04/19 11:20:08;;;;;;;10.43;6.45;;;17.70;76.60;;;;;;6219515;23;20066;-86
2023/04/19 11:22:40;;;;;;;7.80;6.90;;;17.70;77.70;;;;;;6194234;23;20024;-86
2023/04/19 11:25:15;;;;;;;7.03;6.35;;;17.80;79.90;;;;;;6218153;23;20463;-88
2023/04/19 11:27:43;;;;;;;7.95;6.93;;;17.60;77.40;;;;;;6219119;23;20015;-86
2023/04/19 11:30:13;;;;;;;9.65;7.05;;;17.50;76.60;;;;;;6218859;23;19996;-86
2023/04/19 11:32:54;;;;;;;9.05;6.63;;;17.50;77.70;;;;;;6218587;23;20297;-86
2023/04/19 11:35:25;;;;;;;11.23;7.30;;;17.50;79.40;;;;;;6218715;23;20034;-87
2023/04/19 11:37:52;;;;;;;25.92;12.13;;;17.70;77.80;;;;;;6246235;23;19996;-86
2023/04/19 11:40:20;;;;;;;8.23;7.20;;;18.10;78.20;;;;;;6221046;23;20478;-90
2023/04/19 11:42:52;;;;;;;9.02;8.02;;;18.80;74.20;;;;;;6221229;23;19997;-86
2023/04/19 11:45:29;;;;;;;9.98;7.47;;;18.20;75.30;;;;;;6220593;23;20483;-85
2023/04/19 11:47:55;;;;;;;7.70;7.00;;;17.90;74.40;;;;;;6220865;23;20023;-84
2023/04/19 11:50:35;;;;;;;11.25;7.80;;;17.60;76.30;;;;;;6221135;23;20023;-86
2023/04/19 11:53:23;;;;;;;9.80;8.48;;;17.30;77.30;;;;;;6220693;23;19996;-86
2023/04/19 11:55:50;;;;;;;8.70;7.68;;;17.00;78.60;;;;;;6220874;23;20005;-86
2023/04/19 11:58:27;;;;;;;8.38;7.57;;;16.60;82.70;;;;;;6221044;23;19996;-86
2023/04/19 12:01:18;;;;;;;10.32;8.13;;;16.40;88.00;;;;;;6220701;23;19992;-88
2023/04/19 12:03:46;;;;;;;8.63;6.90;;;16.20;90.20;;;;;;6220739;23;20003;-85
2023/04/19 12:06:17;;;;;;;11.55;8.48;;;16.20;89.40;;;;;;6220555;23;20008;-86
2023/04/19 12:08:46;;;;;;;15.73;10.85;;;16.30;91.40;;;;;;6220797;23;20070;-86
2023/04/19 12:11:13;;;;;;;7.93;6.88;;;16.40;91.80;;;;;;6220369;23;20003;-85
2023/04/19 12:13:43;;;;;;;8.65;7.55;;;16.40;87.90;;;;;;6219930;23;20083;-87
2023/04/19 12:16:10;;;;;;;9.70;8.75;;;16.60;87.60;;;;;;6220788;23;20015;-85
2023/04/19 12:18:44;;;;;;;8.63;7.80;;;16.80;89.20;;;;;;6247297;23;20405;-86
2023/04/19 12:21:12;;;;;;;9.63;8.60;;;16.80;84.10;;;;;;6220416;23;20000;-86
2023/04/19 12:23:37;;;;;;;8.93;7.50;;;16.90;86.90;;;;;;6229664;22;20045;-86
2023/04/19 12:26:07;;;;;;;17.08;11.07;;;17.00;83.50;;;;;;6251023;22;20012;-86
2023/04/19 12:28:33;;;;;;;11.25;8.32;;;17.00;82.20;;;;;;6250755;22;20000;-86
2023/04/19 12:30:58;;;;;;;7.07;6.38;;;17.20;83.20;;;;;;6278348;22;20285;-85
2023/04/19 12:33:24;;;;;;;7.97;7.05;;;16.80;79.90;;;;;;6250146;22;20103;-85
2023/04/19 12:35:50;;;;;;;7.82;7.05;;;16.70;83.40;;;;;;6250597;22;20010;-85
2023/04/19 12:38:16;;;;;;;8.43;7.63;;;16.70;85.10;;;;;;6250314;22;20034;-86
2023/04/19 12:40:42;;;;;;;10.18;7.28;;;16.60;84.20;;;;;;6250631;22;20003;-86
2023/04/19 12:43:07;;;;;;;10.23;8.23;;;16.50;84.50;;;;;;6278105;22;20432;-86
2023/04/19 12:45:33;;;;;;;8.73;7.78;;;16.50;85.50;;;;;;6250090;22;20042;-86
2023/04/19 12:47:59;;;;;;;15.45;7.55;;;16.30;84.60;;;;;;6250575;22;20057;-86
2023/04/19 12:50:25;;;;;;;16.35;11.43;;;16.30;85.30;;;;;;6250074;22;20000;-87
2023/04/19 12:52:52;;;;;;;11.32;8.95;;;16.20;86.30;;;;;;6251015;22;20083;-86
2023/04/19 12:55:19;;;;;;;12.07;9.00;;;16.10;87.20;;;;;;6250069;22;20411;-85
2023/04/19 12:57:44;;;;;;;12.93;8.80;;;16.30;89.60;;;;;;6250145;22;20062;-86
2023/04/19 13:00:11;;;;;;;8.80;7.20;;;16.30;89.90;;;;;;6250107;22;20312;-86
2023/04/19 13:02:37;;;;;;;9.88;7.55;;;16.40;87.90;;;;;;6249913;22;19996;-85
2023/04/19 13:05:05;;;;;;;7.85;6.43;;;16.60;84.80;;;;;;6250303;22;20016;-86
2023/04/19 13:07:31;;;;;;;8.70;7.05;;;16.60;85.40;;;;;;6250645;22;19995;-86
2023/04/19 13:09:56;;;;;;;7.57;6.80;;;16.60;87.70;;;;;;6249817;22;20054;-85
2023/04/19 13:12:22;;;;;;;8.82;7.00;;;16.60;86.30;;;;;;6249810;22;20018;-86
2023/04/19 13:14:50;;;;;;;12.35;8.73;;;16.70;84.60;;;;;;6250861;22;20027;-86
2023/04/19 13:17:17;;;;;;;9.95;8.30;;;16.90;86.30;;;;;;6250332;22;20086;-86
2023/04/19 13:19:43;;;;;;;8.50;7.70;;;16.90;85.60;;;;;;6251264;22;19995;-85
2023/04/19 13:22:09;;;;;;;8.35;7.55;;;16.40;79.10;;;;;;6250563;22;19996;-86
2023/04/19 13:24:35;;;;;;;7.55;6.68;;;16.00;79.00;;;;;;6249708;22;20109;-85
2023/04/19 13:27:00;;;;;;;7.57;6.22;;;15.60;80.00;;;;;;6249636;22;20299;-87
2023/04/19 13:29:27;;;;;;;7.53;6.43;;;15.50;81.90;;;;;;6249679;22;19995;-85
2023/04/19 13:31:53;;;;;;;6.30;5.72;;;15.30;80.30;;;;;;6249734;22;20281;-85
2023/04/19 13:34:19;;;;;;;6.13;5.35;;;15.30;80.40;;;;;;6250445;22;20003;-86
2023/04/19 13:36:46;;;;;;;6.80;6.20;;;15.30;80.10;;;;;;6249921;22;20070;-85
2023/04/19 13:39:11;;;;;;;7.55;6.47;;;15.30;80.10;;;;;;6249501;22;20087;-86
2023/04/19 13:41:37;;;;;;;9.98;6.88;;;15.20;80.30;;;;;;6250229;22;20030;-86
2023/04/19 13:44:03;;;;;;;16.75;8.68;;;15.10;82.80;;;;;;6250001;22;20007;-86
2023/04/19 13:46:29;;;;;;;10.07;8.18;;;15.00;83.80;;;;;;6250348;22;20004;-86
2023/04/19 13:48:55;;;;;;;16.10;10.40;;;14.90;85.40;;;;;;6250361;22;20089;-86
2023/04/19 13:51:21;;;;;;;14.25;8.63;;;14.90;85.80;;;;;;6249919;22;19995;-86
2023/04/19 13:53:52;;;;;;;14.85;9.55;;;14.90;86.40;;;;;;6253396;22;20008;-86
2023/04/19 13:56:18;;;;;;;9.30;7.37;;;14.90;87.70;;;;;;6251727;22;20007;-86
2023/04/19 13:58:47;;;;;;;14.18;8.98;;;15.00;83.50;;;;;;6249849;22;19999;-85
2023/04/19 14:01:13;;;;;;;17.17;10.38;;;15.00;87.40;;;;;;6250073;22;19995;-86
2023/04/19 14:03:38;;;;;;;19.77;11.82;;;15.20;84.60;;;;;;6250578;22;20286;-85
2023/04/19 14:06:05;;;;;;;18.67;11.93;;;15.30;85.40;;;;;;6249798;22;20066;-85
2023/04/19 14:08:31;;;;;;;51.28;16.40;;;15.30;83.10;;;;;;6250156;22;20026;-86
2023/04/19 14:10:56;;;;;;;28.80;13.68;;;15.40;85.00;;;;;;6250203;22;20000;-86